createdAt,value
2023-01-04T00:00:24.619Z,3.57
2023-01-04T00:05:48.072Z,3.60
2023-01-04T00:10:51.446Z,3.65
2023-01-04T00:15:54.803Z,3.70
2023-01-04T00:21:08.018Z,3.75
2023-01-04T00:26:31.807Z,3.80
2023-01-04T00:31:35.759Z,3.86
2023-01-04T00:36:39.251Z,3.86
2023-01-04T00:42:02.671Z,3.79
2023-01-04T00:47:06.261Z,3.65
2023-01-04T00:52:10.213Z,3.41
2023-01-04T00:57:13.480Z,3.16
2023-01-04T01:02:17.000Z,2.93
2023-01-04T01:07:20.363Z,2.77
2023-01-04T01:12:23.608Z,2.62
2023-01-04T01:17:26.881Z,2.48
2023-01-04T01:22:31.486Z,2.39
2023-01-04T01:27:34.775Z,2.46
2023-01-04T01:32:38.060Z,2.55
2023-01-04T01:37:41.998Z,2.64
2023-01-04T01:42:45.440Z,2.74
2023-01-04T01:47:50.910Z,2.86
2023-01-04T01:52:56.131Z,2.96
2023-01-04T01:58:01.480Z,3.01
2023-01-04T02:03:22.916Z,2.92
2023-01-04T02:08:26.863Z,2.73
2023-01-04T02:13:51.272Z,2.52
2023-01-04T02:19:36.656Z,2.27
2023-01-04T02:25:07.679Z,2.01
2023-01-04T02:30:16.885Z,1.80
2023-01-04T02:35:40.298Z,1.64
2023-01-04T02:40:52.721Z,1.47
2023-01-04T02:46:03.770Z,1.30
2023-01-04T02:51:35.869Z,1.17
2023-01-04T02:57:20.703Z,1.07
2023-01-04T03:02:51.796Z,1.02
2023-01-04T03:08:29.343Z,0.93
2023-01-04T03:13:40.269Z,0.82
2023-01-04T03:18:53.802Z,0.77
2023-01-04T03:24:21.443Z,0.71
2023-01-04T03:29:58.282Z,0.68
2023-01-04T03:35:20.718Z,0.63
2023-01-04T03:40:50.330Z,0.61
2023-01-04T03:46:22.934Z,0.58
2023-01-04T03:51:31.263Z,0.53
2023-01-04T03:56:38.503Z,0.55
2023-01-04T04:01:44.078Z,0.56
2023-01-04T04:07:06.084Z,0.59
2023-01-04T04:12:09.424Z,0.58
2023-01-04T04:17:12.841Z,0.54
2023-01-04T04:22:16.175Z,0.58
2023-01-04T04:27:19.479Z,0.54
2023-01-04T04:32:23.165Z,0.48
2023-01-04T04:37:28.902Z,0.52
2023-01-04T04:42:32.163Z,0.57
2023-01-04T04:47:35.441Z,0.58
2023-01-04T04:52:41.526Z,0.58
2023-01-04T04:57:44.854Z,0.57
2023-01-04T05:02:48.482Z,0.55
2023-01-04T05:07:52.035Z,0.59
2023-01-04T05:13:01.698Z,0.63
2023-01-04T05:18:06.812Z,0.63
2023-01-04T05:23:12.789Z,0.57
2023-01-04T05:28:16.482Z,0.51
2023-01-04T05:33:40.084Z,0.44
2023-01-04T05:38:43.484Z,0.38
2023-01-04T05:43:46.664Z,0.34
2023-01-04T05:48:50.062Z,0.26
2023-01-04T05:53:53.467Z,0.15
2023-01-04T05:58:56.742Z,0.12
2023-01-04T06:04:00.804Z,0.11
2023-01-04T06:09:04.505Z,0.11
2023-01-04T06:14:07.843Z,0.07
2023-01-04T06:19:11.186Z,0.05
2023-01-04T06:24:14.660Z,0.05
2023-01-04T06:29:18.397Z,0.08
2023-01-04T06:34:30.476Z,0.19
2023-01-04T06:39:34.073Z,0.34
2023-01-04T06:44:39.543Z,0.47
2023-01-04T06:49:45.696Z,0.61
2023-01-04T06:54:49.016Z,0.77
2023-01-04T06:59:52.447Z,0.89
2023-01-04T07:04:55.801Z,0.97
2023-01-04T07:10:02.413Z,1.02
2023-01-04T07:15:39.595Z,1.10
2023-01-04T07:20:39.118Z,1.17
2023-01-04T07:25:42.864Z,1.27
2023-01-04T07:30:48.693Z,1.39
2023-01-04T07:35:52.254Z,1.45
2023-01-04T07:40:57.164Z,1.56
2023-01-04T07:46:01.365Z,1.70
2023-01-04T07:51:05.995Z,1.76
2023-01-04T07:56:13.744Z,1.88
2023-01-04T08:01:22.165Z,2.03
2023-01-04T08:06:25.560Z,2.12
2023-01-04T08:11:29.481Z,2.22
2023-01-04T08:16:38.215Z,2.34
2023-01-04T08:21:42.417Z,2.46
2023-01-04T08:26:46.720Z,2.57
2023-01-04T08:31:50.183Z,2.67
2023-01-04T08:36:54.035Z,2.71
2023-01-04T08:42:04.794Z,2.76
2023-01-04T08:47:14.582Z,2.97
2023-01-04T08:52:17.935Z,3.15
2023-01-04T08:57:21.311Z,3.21
2023-01-04T09:02:28.392Z,3.20
2023-01-04T09:07:33.668Z,3.28
2023-01-04T09:12:37.219Z,3.44
2023-01-04T09:17:57.974Z,3.58
2023-01-04T09:23:04.600Z,3.81
2023-01-04T09:28:07.872Z,4.04
2023-01-04T09:33:11.117Z,4.22
2023-01-04T09:38:14.424Z,4.27
2023-01-04T09:43:32.618Z,4.28
2023-01-04T09:48:41.726Z,4.33
2023-01-04T09:53:53.795Z,4.38
2023-01-04T09:58:58.616Z,4.51
2023-01-04T10:04:05.135Z,4.68
2023-01-04T10:09:15.693Z,4.81
2023-01-04T10:14:31.707Z,5.01
2023-01-04T10:25:41.356Z,4.94
2023-01-04T10:31:40.075Z,5.03
2023-01-04T10:36:37.916Z,5.07
2023-01-04T10:41:50.893Z,5.11
2023-01-04T10:47:04.979Z,5.21
2023-01-04T10:52:23.579Z,5.38
